PWSweather.com
Personal Weather Stations
Station Observations
PERMAKAI
WaiukuNZ

WaiukuNZ

Lat: -37.22, Lon: 174.77

Elevation: 219.816

Station Type: WH3081

Latest ConditionsUpdated 10:00:00 AM GMT+12:12 Monday, Jan 21, 2019
Currently Today's Max Today's Min Today's Average
Temperature 72.9°F22.7°C 72.9°F22.7°C 62.8°F17.1°C 65.4°F18.6°C
Dew Point 55.2°F12.9°C 58.6°F14.8°C 51.0°F10.6°C 54.5°F12.5°C
Winds 6.0 mph W9.7 kmh W 6.9 mph -11.1 kmh - - 3.9 mph 6.3 kmh
Wind Gusts 9.2 mph14.8 kmh 13.0 mph20.9 kmh - -
Humidity 54% 77% 54% 68%
Pressure 29.89 in1012.2 mb 29.95 in1014.2 mb 29.89 in1012.2 mb -
Hour Temp Dew Point Humidity Winds Wind Gusts Pressure Precip Precip Rate Daily Precip Total
10:00 AM 72.9°F22.7°C 55.2°F12.9°C 54% 6.0 mph W9.7 kmh W 9.2 mph14.8 kmh 29.89 in1012.2 mb 0.00 in0.0 mm 0.00 in0.0 mm 0.00 in0.0 mm
09:30 AM 70.2°F21.2°C 56.5°F13.6°C 62% 4.5 mph SW7.2 kmh SW 6.9 mph11.1 kmh 29.89 in1012.2 mb 0.00 in0.0 mm 0.00 in0.0 mm 0.00 in0.0 mm
09:00 AM 69.8°F21.0°C 57.9°F14.4°C 66% 3.8 mph SW6.1 kmh SW 6.9 mph11.1 kmh 29.89 in1012.2 mb 0.00 in0.0 mm 0.00 in0.0 mm 0.00 in0.0 mm
08:30 AM 66.6°F19.2°C 57.6°F14.2°C 73% 4.5 mph SW7.2 kmh SW 8.3 mph13.4 kmh 29.90 in1012.5 mb 0.00 in0.0 mm 0.00 in0.0 mm 0.00 in0.0 mm
08:00 AM 66.0°F18.9°C 58.6°F14.8°C 77% 4.5 mph NW7.2 kmh NW 6.9 mph11.1 kmh 29.90 in1012.5 mb 0.00 in0.0 mm 0.00 in0.0 mm 0.00 in0.0 mm
07:30 AM 66.9°F19.4°C 56.0°F13.3°C 68% 6.9 mph 11.1 kmh 13.0 mph20.9 kmh 29.91 in1012.9 mb 0.00 in0.0 mm 0.00 in0.0 mm 0.00 in0.0 mm
07:00 AM 68.5°F20.3°C 57.1°F13.9°C 67% 2.2 mph SE3.5 kmh SE 3.8 mph6.1 kmh 29.91 in1012.9 mb 0.00 in0.0 mm 0.00 in0.0 mm 0.00 in0.0 mm
06:30 AM 64.9°F18.3°C 55.7°F13.2°C 72% 6.0 mph NNW9.7 kmh NNW 9.8 mph15.8 kmh 29.91 in1012.9 mb 0.00 in0.0 mm 0.00 in0.0 mm 0.00 in0.0 mm
06:00 AM 65.1°F18.4°C 55.1°F12.8°C 70% 3.8 mph NW6.1 kmh NW 5.4 mph8.7 kmh 29.91 in1012.9 mb 0.00 in0.0 mm 0.00 in0.0 mm 0.00 in0.0 mm
05:30 AM 64.6°F18.1°C 56.5°F13.6°C 75% 4.5 mph SW7.2 kmh SW 6.0 mph9.7 kmh 29.90 in1012.5 mb 0.00 in0.0 mm 0.00 in0.0 mm 0.00 in0.0 mm
05:00 AM 63.0°F17.2°C 54.2°F12.3°C 73% 1.6 mph W2.6 kmh W 3.1 mph5.0 kmh 29.90 in1012.5 mb 0.00 in0.0 mm 0.00 in0.0 mm 0.00 in0.0 mm
04:30 AM 62.8°F17.1°C 53.2°F11.8°C 71% 3.8 mph SW6.1 kmh SW 5.4 mph8.7 kmh 29.89 in1012.2 mb 0.00 in0.0 mm 0.00 in0.0 mm 0.00 in0.0 mm
04:00 AM 64.2°F17.9°C 53.8°F12.1°C 69% 5.4 mph SSW8.7 kmh SSW 6.9 mph11.1 kmh 29.90 in1012.5 mb 0.00 in0.0 mm 0.00 in0.0 mm 0.00 in0.0 mm
03:30 AM 63.3°F17.4°C 53.0°F11.7°C 69% 3.1 mph SW5.0 kmh SW 5.4 mph8.7 kmh 29.90 in1012.5 mb 0.00 in0.0 mm 0.00 in0.0 mm 0.00 in0.0 mm
03:00 AM 63.9°F17.7°C 52.3°F11.3°C 66% 6.0 mph NW9.7 kmh NW 8.3 mph13.4 kmh 29.91 in1012.9 mb 0.00 in0.0 mm 0.00 in0.0 mm 0.00 in0.0 mm
02:30 AM 63.9°F17.7°C 52.7°F11.5°C 67% 0.7 mph W1.1 kmh W 3.8 mph6.1 kmh 29.92 in1013.2 mb 0.00 in0.0 mm 0.00 in0.0 mm 0.00 in0.0 mm
02:00 AM 64.2°F17.9°C 52.6°F11.4°C 66% 4.5 mph SW7.2 kmh SW 6.0 mph9.7 kmh 29.93 in1013.5 mb 0.00 in0.0 mm 0.00 in0.0 mm 0.00 in0.0 mm
01:30 AM 62.8°F17.1°C 52.1°F11.2°C 68% 2.2 mph SW3.5 kmh SW 3.8 mph6.1 kmh 29.93 in1013.5 mb 0.00 in0.0 mm 0.00 in0.0 mm 0.00 in0.0 mm
01:00 AM 63.0°F17.2°C 51.0°F10.6°C 65% 3.1 mph SW5.0 kmh SW 3.8 mph6.1 kmh 29.94 in1013.9 mb 0.00 in0.0 mm 0.00 in0.0 mm 0.00 in0.0 mm
12:30 AM 63.1°F17.3°C 51.2°F10.7°C 65% 2.2 mph SW3.5 kmh SW 3.1 mph5.0 kmh 29.95 in1014.2 mb 0.00 in0.0 mm 0.00 in0.0 mm 0.00 in0.0 mm
12:00 AM 62.8°F17.1°C 51.2°F10.7°C 66% 3.1 mph SW5.0 kmh SW 4.5 mph7.2 kmh 29.95 in1014.2 mb 0.00 in0.0 mm 0.00 in0.0 mm 0.00 in0.0 mm